sensor_id;sensor_type;location;lat;lon;timestamp;P1;durP1;ratioP1;P2;durP2;ratioP2
25153;SDS011;47555;51.038;6.280;2023-08-20T00:00:20;14.55;;;8.70;;
25153;SDS011;47555;51.038;6.280;2023-08-20T00:02:46;15.10;;;8.38;;
25153;SDS011;47555;51.038;6.280;2023-08-20T00:05:12;14.00;;;8.05;;
25153;SDS011;47555;51.038;6.280;2023-08-20T00:07:39;13.98;;;8.68;;
25153;SDS011;47555;51.038;6.280;2023-08-20T00:10:05;14.13;;;8.27;;
25153;SDS011;47555;51.038;6.280;2023-08-20T00:12:31;13.40;;;7.72;;
25153;SDS011;47555;51.038;6.280;2023-08-20T00:15:06;13.10;;;8.00;;
25153;SDS011;47555;51.038;6.280;2023-08-20T00:17:33;17.00;;;7.55;;
25153;SDS011;47555;51.038;6.280;2023-08-20T00:19:59;13.20;;;7.30;;
25153;SDS011;47555;51.038;6.280;2023-08-20T00:22:26;14.63;;;7.80;;
25153;SDS011;47555;51.038;6.280;2023-08-20T00:24:52;10.77;;;6.88;;
25153;SDS011;47555;51.038;6.280;2023-08-20T00:27:19;11.52;;;7.22;;
25153;SDS011;47555;51.038;6.280;2023-08-20T00:29:45;11.73;;;6.85;;
25153;SDS011;47555;51.038;6.280;2023-08-20T00:32:11;9.38;;;6.10;;
25153;SDS011;47555;51.038;6.280;2023-08-20T00:34:37;9.77;;;6.65;;
25153;SDS011;47555;51.038;6.280;2023-08-20T00:37:03;11.88;;;6.72;;
25153;SDS011;47555;51.038;6.280;2023-08-20T00:39:29;13.73;;;7.55;;
25153;SDS011;47555;51.038;6.280;2023-08-20T00:41:55;11.38;;;7.43;;
25153;SDS011;47555;51.038;6.280;2023-08-20T00:44:21;13.60;;;7.68;;
25153;SDS011;47555;51.038;6.280;2023-08-20T00:46:48;14.13;;;7.43;;
25153;SDS011;47555;51.038;6.280;2023-08-20T00:49:18;14.77;;;7.50;;
25153;SDS011;47555;51.038;6.280;2023-08-20T00:51:44;14.40;;;8.35;;
25153;SDS011;47555;51.038;6.280;2023-08-20T00:54:10;11.85;;;7.15;;
25153;SDS011;47555;51.038;6.280;2023-08-20T00:56:37;11.52;;;7.40;;
25153;SDS011;47555;51.038;6.280;2023-08-20T00:59:04;14.73;;;7.07;;
25153;SDS011;47555;51.038;6.280;2023-08-20T01:01:31;14.77;;;7.03;;
25153;SDS011;47555;51.038;6.280;2023-08-20T01:03:57;9.60;;;6.28;;
25153;SDS011;47555;51.038;6.280;2023-08-20T01:06:26;13.13;;;6.32;;
25153;SDS011;47555;51.038;6.280;2023-08-20T01:09:01;12.05;;;6.50;;
25153;SDS011;47555;51.038;6.280;2023-08-20T01:11:30;10.68;;;6.88;;
25153;SDS011;47555;51.038;6.280;2023-08-20T01:13:59;10.02;;;6.13;;
25153;SDS011;47555;51.038;6.280;2023-08-20T01:16:26;9.98;;;6.00;;
25153;SDS011;47555;51.038;6.280;2023-08-20T01:18:52;10.75;;;7.25;;
25153;SDS011;47555;51.038;6.280;2023-08-20T01:21:37;12.63;;;6.90;;
25153;SDS011;47555;51.038;6.280;2023-08-20T01:24:14;13.70;;;6.63;;
25153;SDS011;47555;51.038;6.280;2023-08-20T01:26:53;14.77;;;7.32;;
25153;SDS011;47555;51.038;6.280;2023-08-20T01:29:22;11.50;;;6.30;;
25153;SDS011;47555;51.038;6.280;2023-08-20T01:31:48;9.68;;;6.75;;
25153;SDS011;47555;51.038;6.280;2023-08-20T01:34:14;11.80;;;6.90;;
25153;SDS011;47555;51.038;6.280;2023-08-20T01:36:40;13.38;;;7.03;;
25153;SDS011;47555;51.038;6.280;2023-08-20T01:39:06;9.52;;;6.85;;
25153;SDS011;47555;51.038;6.280;2023-08-20T01:41:33;9.70;;;6.68;;
25153;SDS011;47555;51.038;6.280;2023-08-20T01:43:58;11.02;;;6.75;;
25153;SDS011;47555;51.038;6.280;2023-08-20T01:46:25;16.98;;;8.38;;
25153;SDS011;47555;51.038;6.280;2023-08-20T01:48:50;15.43;;;9.02;;
25153;SDS011;47555;51.038;6.280;2023-08-20T01:51:16;11.38;;;7.30;;
25153;SDS011;47555;51.038;6.280;2023-08-20T01:53:42;10.55;;;7.28;;
25153;SDS011;47555;51.038;6.280;2023-08-20T01:56:12;10.25;;;7.03;;
25153;SDS011;47555;51.038;6.280;2023-08-20T01:58:38;8.15;;;6.57;;
25153;SDS011;47555;51.038;6.280;2023-08-20T02:01:04;14.45;;;7.38;;
25153;SDS011;47555;51.038;6.280;2023-08-20T02:03:29;9.85;;;6.90;;
25153;SDS011;47555;51.038;6.280;2023-08-20T02:05:56;14.48;;;7.68;;
25153;SDS011;47555;51.038;6.280;2023-08-20T02:08:22;11.23;;;7.78;;
25153;SDS011;47555;51.038;6.280;2023-08-20T02:10:48;12.95;;;7.85;;
25153;SDS011;47555;51.038;6.280;2023-08-20T02:13:13;12.48;;;7.82;;
25153;SDS011;47555;51.038;6.280;2023-08-20T02:15:39;12.35;;;8.02;;
25153;SDS011;47555;51.038;6.280;2023-08-20T02:18:05;15.07;;;8.80;;
25153;SDS011;47555;51.038;6.280;2023-08-20T02:20:31;14.63;;;9.85;;
25153;SDS011;47555;51.038;6.280;2023-08-20T02:22:57;21.00;;;11.25;;
25153;SDS011;47555;51.038;6.280;2023-08-20T02:25:24;22.23;;;12.70;;
25153;SDS011;47555;51.038;6.280;2023-08-20T02:27:50;17.63;;;11.25;;
25153;SDS011;47555;51.038;6.280;2023-08-20T02:30:16;15.77;;;10.43;;
25153;SDS011;47555;51.038;6.280;2023-08-20T02:32:42;16.13;;;10.45;;
25153;SDS011;47555;51.038;6.280;2023-08-20T02:35:08;17.75;;;10.73;;
25153;SDS011;47555;51.038;6.280;2023-08-20T02:37:34;15.23;;;10.38;;
25153;SDS011;47555;51.038;6.280;2023-08-20T02:40:01;17.20;;;10.57;;
25153;SDS011;47555;51.038;6.280;2023-08-20T02:42:27;15.30;;;10.32;;
25153;SDS011;47555;51.038;6.280;2023-08-20T02:44:53;17.25;;;9.63;;
25153;SDS011;47555;51.038;6.280;2023-08-20T02:47:19;15.02;;;10.40;;
25153;SDS011;47555;51.038;6.280;2023-08-20T02:49:45;13.10;;;9.30;;
25153;SDS011;47555;51.038;6.280;2023-08-20T02:52:11;13.30;;;9.85;;
25153;SDS011;47555;51.038;6.280;2023-08-20T02:54:36;15.32;;;9.95;;
25153;SDS011;47555;51.038;6.280;2023-08-20T02:57:02;14.30;;;8.93;;
25153;SDS011;47555;51.038;6.280;2023-08-20T02:59:28;14.15;;;8.93;;
25153;SDS011;47555;51.038;6.280;2023-08-20T03:01:54;14.75;;;9.85;;
25153;SDS011;47555;51.038;6.280;2023-08-20T03:04:20;14.63;;;8.80;;
25153;SDS011;47555;51.038;6.280;2023-08-20T03:06:46;14.10;;;9.70;;
25153;SDS011;47555;51.038;6.280;2023-08-20T03:09:12;15.85;;;9.48;;
25153;SDS011;47555;51.038;6.280;2023-08-20T03:11:38;16.88;;;9.50;;
25153;SDS011;47555;51.038;6.280;2023-08-20T03:14:04;15.13;;;9.48;;
25153;SDS011;47555;51.038;6.280;2023-08-20T03:16:30;14.07;;;9.32;;
25153;SDS011;47555;51.038;6.280;2023-08-20T03:18:56;15.70;;;9.60;;
25153;SDS011;47555;51.038;6.280;2023-08-20T03:21:22;21.88;;;11.18;;
25153;SDS011;47555;51.038;6.280;2023-08-20T03:23:49;17.08;;;9.95;;
25153;SDS011;47555;51.038;6.280;2023-08-20T03:26:15;16.02;;;9.98;;
25153;SDS011;47555;51.038;6.280;2023-08-20T03:28:41;20.77;;;12.13;;
25153;SDS011;47555;51.038;6.280;2023-08-20T03:31:07;21.23;;;10.57;;
25153;SDS011;47555;51.038;6.280;2023-08-20T03:33:33;20.40;;;12.60;;
25153;SDS011;47555;51.038;6.280;2023-08-20T03:35:59;18.60;;;11.60;;
25153;SDS011;47555;51.038;6.280;2023-08-20T03:38:25;16.70;;;11.57;;
25153;SDS011;47555;51.038;6.280;2023-08-20T03:40:51;18.65;;;10.73;;
25153;SDS011;47555;51.038;6.280;2023-08-20T03:43:16;17.23;;;10.68;;
25153;SDS011;47555;51.038;6.280;2023-08-20T03:45:42;14.07;;;9.85;;
25153;SDS011;47555;51.038;6.280;2023-08-20T03:48:08;22.70;;;13.27;;
25153;SDS011;47555;51.038;6.280;2023-08-20T03:50:34;18.20;;;12.10;;
25153;SDS011;47555;51.038;6.280;2023-08-20T03:53:00;25.05;;;13.75;;
25153;SDS011;47555;51.038;6.280;2023-08-20T03:55:27;21.95;;;12.75;;
25153;SDS011;47555;51.038;6.280;2023-08-20T03:57:54;23.10;;;12.52;;
25153;SDS011;47555;51.038;6.280;2023-08-20T04:00:20;25.55;;;13.35;;
25153;SDS011;47555;51.038;6.280;2023-08-20T04:02:46;18.80;;;11.55;;
25153;SDS011;47555;51.038;6.280;2023-08-20T04:05:12;20.48;;;12.07;;
25153;SDS011;47555;51.038;6.280;2023-08-20T04:07:38;19.77;;;11.57;;
25153;SDS011;47555;51.038;6.280;2023-08-20T04:10:04;20.98;;;11.38;;
25153;SDS011;47555;51.038;6.280;2023-08-20T04:12:30;18.88;;;11.73;;
25153;SDS011;47555;51.038;6.280;2023-08-20T04:14:56;17.27;;;12.10;;
25153;SDS011;47555;51.038;6.280;2023-08-20T04:17:22;19.15;;;11.73;;
25153;SDS011;47555;51.038;6.280;2023-08-20T04:19:48;18.98;;;11.73;;
25153;SDS011;47555;51.038;6.280;2023-08-20T04:22:14;20.38;;;10.82;;
25153;SDS011;47555;51.038;6.280;2023-08-20T04:24:39;15.70;;;10.32;;
25153;SDS011;47555;51.038;6.280;2023-08-20T04:27:05;17.23;;;11.25;;
25153;SDS011;47555;51.038;6.280;2023-08-20T04:29:32;18.10;;;10.95;;
25153;SDS011;47555;51.038;6.280;2023-08-20T04:31:58;17.50;;;10.80;;
25153;SDS011;47555;51.038;6.280;2023-08-20T04:34:24;14.50;;;10.20;;
25153;SDS011;47555;51.038;6.280;2023-08-20T04:36:50;19.90;;;10.88;;
25153;SDS011;47555;51.038;6.280;2023-08-20T04:39:17;17.38;;;11.30;;
25153;SDS011;47555;51.038;6.280;2023-08-20T04:41:43;18.40;;;11.02;;
25153;SDS011;47555;51.038;6.280;2023-08-20T04:44:09;16.65;;;11.98;;
25153;SDS011;47555;51.038;6.280;2023-08-20T04:46:35;19.05;;;11.98;;
25153;SDS011;47555;51.038;6.280;2023-08-20T04:49:01;19.27;;;11.05;;
25153;SDS011;47555;51.038;6.280;2023-08-20T04:51:27;17.38;;;10.70;;
25153;SDS011;47555;51.038;6.280;2023-08-20T04:53:53;17.33;;;10.90;;
25153;SDS011;47555;51.038;6.280;2023-08-20T04:56:19;15.13;;;10.85;;
25153;SDS011;47555;51.038;6.280;2023-08-20T04:58:45;18.10;;;10.07;;
25153;SDS011;47555;51.038;6.280;2023-08-20T05:01:11;18.52;;;11.18;;
25153;SDS011;47555;51.038;6.280;2023-08-20T05:03:37;18.70;;;11.32;;
25153;SDS011;47555;51.038;6.280;2023-08-20T05:06:03;18.95;;;11.77;;
25153;SDS011;47555;51.038;6.280;2023-08-20T05:08:29;14.32;;;9.73;;
25153;SDS011;47555;51.038;6.280;2023-08-20T05:10:55;14.82;;;9.70;;
25153;SDS011;47555;51.038;6.280;2023-08-20T05:13:21;16.23;;;10.38;;
25153;SDS011;47555;51.038;6.280;2023-08-20T05:15:48;19.65;;;10.77;;
25153;SDS011;47555;51.038;6.280;2023-08-20T05:18:14;15.93;;;10.68;;
25153;SDS011;47555;51.038;6.280;2023-08-20T05:20:40;17.85;;;11.55;;
25153;SDS011;47555;51.038;6.280;2023-08-20T05:23:06;21.10;;;12.13;;
25153;SDS011;47555;51.038;6.280;2023-08-20T05:25:32;20.02;;;11.35;;
25153;SDS011;47555;51.038;6.280;2023-08-20T05:27:58;18.33;;;11.25;;
25153;SDS011;47555;51.038;6.280;2023-08-20T05:30:26;19.95;;;11.60;;
25153;SDS011;47555;51.038;6.280;2023-08-20T05:32:52;17.48;;;11.57;;
25153;SDS011;47555;51.038;6.280;2023-08-20T05:35:18;19.23;;;11.63;;
25153;SDS011;47555;51.038;6.280;2023-08-20T05:37:44;18.90;;;11.77;;
25153;SDS011;47555;51.038;6.280;2023-08-20T05:40:10;17.92;;;11.05;;
25153;SDS011;47555;51.038;6.280;2023-08-20T05:42:36;18.67;;;11.88;;
25153;SDS011;47555;51.038;6.280;2023-08-20T05:45:02;18.60;;;12.48;;
25153;SDS011;47555;51.038;6.280;2023-08-20T05:47:28;16.67;;;11.43;;
25153;SDS011;47555;51.038;6.280;2023-08-20T05:49:54;20.02;;;11.18;;
25153;SDS011;47555;51.038;6.280;2023-08-20T05:52:20;17.77;;;11.73;;
25153;SDS011;47555;51.038;6.280;2023-08-20T05:54:46;20.38;;;13.02;;
25153;SDS011;47555;51.038;6.280;2023-08-20T05:57:12;16.15;;;11.35;;
25153;SDS011;47555;51.038;6.280;2023-08-20T05:59:37;17.38;;;11.60;;
25153;SDS011;47555;51.038;6.280;2023-08-20T06:02:03;17.80;;;11.07;;
25153;SDS011;47555;51.038;6.280;2023-08-20T06:04:30;15.38;;;11.32;;
25153;SDS011;47555;51.038;6.280;2023-08-20T06:06:55;13.77;;;10.07;;
25153;SDS011;47555;51.038;6.280;2023-08-20T06:09:21;15.77;;;10.45;;
25153;SDS011;47555;51.038;6.280;2023-08-20T06:11:47;17.60;;;11.30;;
25153;SDS011;47555;51.038;6.280;2023-08-20T06:14:14;20.27;;;10.85;;
25153;SDS011;47555;51.038;6.280;2023-08-20T06:16:40;15.02;;;10.98;;
25153;SDS011;47555;51.038;6.280;2023-08-20T06:19:06;15.82;;;10.45;;
25153;SDS011;47555;51.038;6.280;2023-08-20T06:21:32;15.52;;;10.43;;
25153;SDS011;47555;51.038;6.280;2023-08-20T06:23:58;16.98;;;10.55;;
25153;SDS011;47555;51.038;6.280;2023-08-20T06:26:24;16.40;;;10.65;;
25153;SDS011;47555;51.038;6.280;2023-08-20T06:28:50;16.33;;;11.48;;
25153;SDS011;47555;51.038;6.280;2023-08-20T06:31:16;13.90;;;9.63;;
25153;SDS011;47555;51.038;6.280;2023-08-20T06:33:42;12.63;;;9.25;;
25153;SDS011;47555;51.038;6.280;2023-08-20T06:36:08;14.70;;;9.65;;
25153;SDS011;47555;51.038;6.280;2023-08-20T06:38:34;18.77;;;10.00;;
25153;SDS011;47555;51.038;6.280;2023-08-20T06:41:00;17.88;;;10.80;;
25153;SDS011;47555;51.038;6.280;2023-08-20T06:43:26;18.33;;;11.77;;
25153;SDS011;47555;51.038;6.280;2023-08-20T06:45:52;15.10;;;10.60;;
25153;SDS011;47555;51.038;6.280;2023-08-20T06:48:18;14.43;;;9.70;;
25153;SDS011;47555;51.038;6.280;2023-08-20T06:50:45;13.27;;;9.48;;
25153;SDS011;47555;51.038;6.280;2023-08-20T06:53:11;14.02;;;9.82;;
25153;SDS011;47555;51.038;6.280;2023-08-20T06:55:37;15.35;;;9.18;;
25153;SDS011;47555;51.038;6.280;2023-08-20T06:58:03;15.35;;;10.15;;
25153;SDS011;47555;51.038;6.280;2023-08-20T07:00:29;11.10;;;8.20;;
25153;SDS011;47555;51.038;6.280;2023-08-20T07:02:55;15.07;;;9.75;;
25153;SDS011;47555;51.038;6.280;2023-08-20T07:05:21;16.45;;;10.23;;
25153;SDS011;47555;51.038;6.280;2023-08-20T07:07:47;14.57;;;9.13;;
25153;SDS011;47555;51.038;6.280;2023-08-20T07:10:13;16.23;;;9.25;;
25153;SDS011;47555;51.038;6.280;2023-08-20T07:12:39;12.48;;;8.63;;
25153;SDS011;47555;51.038;6.280;2023-08-20T07:15:05;13.88;;;9.63;;
25153;SDS011;47555;51.038;6.280;2023-08-20T07:17:32;13.90;;;10.07;;
25153;SDS011;47555;51.038;6.280;2023-08-20T07:19:58;12.98;;;8.40;;
25153;SDS011;47555;51.038;6.280;2023-08-20T07:22:23;12.30;;;7.97;;
25153;SDS011;47555;51.038;6.280;2023-08-20T07:24:49;12.95;;;8.70;;
25153;SDS011;47555;51.038;6.280;2023-08-20T07:27:15;14.30;;;8.30;;
25153;SDS011;47555;51.038;6.280;2023-08-20T07:29:41;15.20;;;8.77;;
25153;SDS011;47555;51.038;6.280;2023-08-20T07:32:07;12.10;;;7.55;;
25153;SDS011;47555;51.038;6.280;2023-08-20T07:34:33;14.07;;;7.82;;
25153;SDS011;47555;51.038;6.280;2023-08-20T07:36:59;11.23;;;7.53;;
25153;SDS011;47555;51.038;6.280;2023-08-20T07:39:26;14.93;;;9.15;;
25153;SDS011;47555;51.038;6.280;2023-08-20T07:41:52;13.25;;;8.25;;
25153;SDS011;47555;51.038;6.280;2023-08-20T07:44:18;12.35;;;8.30;;
25153;SDS011;47555;51.038;6.280;2023-08-20T07:46:44;13.82;;;7.93;;
25153;SDS011;47555;51.038;6.280;2023-08-20T07:49:10;13.50;;;8.50;;
25153;SDS011;47555;51.038;6.280;2023-08-20T07:51:36;10.70;;;8.02;;
25153;SDS011;47555;51.038;6.280;2023-08-20T07:54:02;14.18;;;8.60;;
25153;SDS011;47555;51.038;6.280;2023-08-20T07:56:28;12.77;;;8.10;;
25153;SDS011;47555;51.038;6.280;2023-08-20T07:58:54;15.57;;;9.18;;
25153;SDS011;47555;51.038;6.280;2023-08-20T08:01:19;13.35;;;9.05;;
25153;SDS011;47555;51.038;6.280;2023-08-20T08:03:46;13.77;;;8.38;;
25153;SDS011;47555;51.038;6.280;2023-08-20T08:06:12;16.17;;;10.27;;
25153;SDS011;47555;51.038;6.280;2023-08-20T08:08:41;14.52;;;9.38;;
25153;SDS011;47555;51.038;6.280;2023-08-20T08:11:08;13.55;;;8.98;;
25153;SDS011;47555;51.038;6.280;2023-08-20T08:13:35;14.68;;;8.18;;
25153;SDS011;47555;51.038;6.280;2023-08-20T08:16:01;14.10;;;9.40;;
25153;SDS011;47555;51.038;6.280;2023-08-20T08:18:27;17.75;;;10.02;;
25153;SDS011;47555;51.038;6.280;2023-08-20T08:20:53;12.55;;;9.48;;
25153;SDS011;47555;51.038;6.280;2023-08-20T08:23:19;13.93;;;9.18;;
25153;SDS011;47555;51.038;6.280;2023-08-20T08:25:45;12.80;;;8.38;;
25153;SDS011;47555;51.038;6.280;2023-08-20T08:28:11;15.65;;;9.38;;
25153;SDS011;47555;51.038;6.280;2023-08-20T08:30:37;12.07;;;8.07;;
25153;SDS011;47555;51.038;6.280;2023-08-20T08:33:04;13.93;;;7.97;;
25153;SDS011;47555;51.038;6.280;2023-08-20T08:35:30;11.00;;;7.80;;
25153;SDS011;47555;51.038;6.280;2023-08-20T08:37:56;13.13;;;9.38;;
25153;SDS011;47555;51.038;6.280;2023-08-20T08:40:23;15.45;;;9.07;;
25153;SDS011;47555;51.038;6.280;2023-08-20T08:42:49;14.00;;;9.82;;
25153;SDS011;47555;51.038;6.280;2023-08-20T08:45:16;12.93;;;8.93;;
25153;SDS011;47555;51.038;6.280;2023-08-20T08:47:43;10.90;;;8.10;;
25153;SDS011;47555;51.038;6.280;2023-08-20T08:50:10;11.70;;;7.93;;
25153;SDS011;47555;51.038;6.280;2023-08-20T08:52:36;10.27;;;8.27;;
25153;SDS011;47555;51.038;6.280;2023-08-20T08:55:03;13.90;;;7.95;;
25153;SDS011;47555;51.038;6.280;2023-08-20T08:57:30;10.15;;;7.32;;
25153;SDS011;47555;51.038;6.280;2023-08-20T08:59:56;13.02;;;8.52;;
25153;SDS011;47555;51.038;6.280;2023-08-20T09:02:22;13.90;;;8.63;;
25153;SDS011;47555;51.038;6.280;2023-08-20T09:04:48;11.50;;;7.40;;
25153;SDS011;47555;51.038;6.280;2023-08-20T09:07:14;10.82;;;7.10;;
25153;SDS011;47555;51.038;6.280;2023-08-20T09:09:44;11.95;;;8.07;;
25153;SDS011;47555;51.038;6.280;2023-08-20T09:12:18;13.00;;;7.88;;
25153;SDS011;47555;51.038;6.280;2023-08-20T09:14:48;10.52;;;7.38;;
25153;SDS011;47555;51.038;6.280;2023-08-20T09:17:14;11.60;;;8.05;;
25153;SDS011;47555;51.038;6.280;2023-08-20T09:19:41;11.48;;;7.55;;
25153;SDS011;47555;51.038;6.280;2023-08-20T09:22:08;14.23;;;7.78;;
25153;SDS011;47555;51.038;6.280;2023-08-20T09:24:38;9.88;;;7.07;;
25153;SDS011;47555;51.038;6.280;2023-08-20T09:27:04;12.93;;;6.90;;
25153;SDS011;47555;51.038;6.280;2023-08-20T09:29:43;12.20;;;7.72;;
25153;SDS011;47555;51.038;6.280;2023-08-20T09:32:13;10.95;;;7.28;;
25153;SDS011;47555;51.038;6.280;2023-08-20T09:34:39;10.25;;;7.15;;
25153;SDS011;47555;51.038;6.280;2023-08-20T09:39:36;12.13;;;9.85;;
25153;SDS011;47555;51.038;6.280;2023-08-20T09:42:03;10.75;;;7.53;;
25153;SDS011;47555;51.038;6.280;2023-08-20T09:44:32;12.05;;;7.55;;
25153;SDS011;47555;51.038;6.280;2023-08-20T09:46:59;9.25;;;6.95;;
25153;SDS011;47555;51.038;6.280;2023-08-20T09:49:26;9.20;;;6.95;;
25153;SDS011;47555;51.038;6.280;2023-08-20T09:51:55;8.10;;;6.15;;
25153;SDS011;47555;51.038;6.280;2023-08-20T09:54:28;10.85;;;7.25;;
25153;SDS011;47555;51.038;6.280;2023-08-20T09:56:58;8.05;;;6.55;;
25153;SDS011;47555;51.038;6.280;2023-08-20T09:59:27;8.73;;;6.10;;
25153;SDS011;47555;51.038;6.280;2023-08-20T10:01:53;6.60;;;5.72;;
25153;SDS011;47555;51.038;6.280;2023-08-20T10:04:20;8.55;;;7.03;;
25153;SDS011;47555;51.038;6.280;2023-08-20T10:06:47;8.57;;;6.65;;
25153;SDS011;47555;51.038;6.280;2023-08-20T10:09:13;12.10;;;6.68;;
25153;SDS011;47555;51.038;6.280;2023-08-20T10:11:39;7.57;;;6.10;;
25153;SDS011;47555;51.038;6.280;2023-08-20T10:14:06;9.85;;;6.53;;
25153;SDS011;47555;51.038;6.280;2023-08-20T10:16:32;9.68;;;7.40;;
25153;SDS011;47555;51.038;6.280;2023-08-20T10:19:01;8.40;;;6.40;;
25153;SDS011;47555;51.038;6.280;2023-08-20T10:21:27;8.63;;;6.13;;
25153;SDS011;47555;51.038;6.280;2023-08-20T10:23:53;7.03;;;5.57;;
25153;SDS011;47555;51.038;6.280;2023-08-20T10:26:19;7.78;;;5.43;;
25153;SDS011;47555;51.038;6.280;2023-08-20T10:28:49;7.68;;;5.88;;
25153;SDS011;47555;51.038;6.280;2023-08-20T10:31:16;9.57;;;6.00;;
25153;SDS011;47555;51.038;6.280;2023-08-20T10:33:55;6.60;;;4.97;;
25153;SDS011;47555;51.038;6.280;2023-08-20T10:36:21;6.20;;;5.07;;
25153;SDS011;47555;51.038;6.280;2023-08-20T10:38:53;5.85;;;4.43;;
25153;SDS011;47555;51.038;6.280;2023-08-20T10:41:27;7.83;;;5.57;;
25153;SDS011;47555;51.038;6.280;2023-08-20T10:43:53;7.38;;;5.68;;
25153;SDS011;47555;51.038;6.280;2023-08-20T10:46:23;7.35;;;6.40;;
25153;SDS011;47555;51.038;6.280;2023-08-20T10:48:53;9.20;;;6.32;;
25153;SDS011;47555;51.038;6.280;2023-08-20T10:54:01;6.10;;;5.35;;
25153;SDS011;47555;51.038;6.280;2023-08-20T10:56:44;5.85;;;5.25;;
25153;SDS011;47555;51.038;6.280;2023-08-20T10:59:17;6.63;;;4.95;;
25153;SDS011;47555;51.038;6.280;2023-08-20T11:01:47;5.97;;;5.28;;
25153;SDS011;47555;51.038;6.280;2023-08-20T11:04:17;8.18;;;5.57;;
25153;SDS011;47555;51.038;6.280;2023-08-20T11:06:44;7.60;;;6.37;;
25153;SDS011;47555;51.038;6.280;2023-08-20T11:09:13;9.00;;;6.10;;
25153;SDS011;47555;51.038;6.280;2023-08-20T11:11:40;8.20;;;6.38;;
25153;SDS011;47555;51.038;6.280;2023-08-20T11:14:07;10.45;;;6.10;;
25153;SDS011;47555;51.038;6.280;2023-08-20T11:16:36;9.13;;;5.90;;
25153;SDS011;47555;51.038;6.280;2023-08-20T11:19:02;6.30;;;5.70;;
25153;SDS011;47555;51.038;6.280;2023-08-20T11:21:34;7.13;;;6.00;;
25153;SDS011;47555;51.038;6.280;2023-08-20T11:24:00;6.72;;;5.38;;
25153;SDS011;47555;51.038;6.280;2023-08-20T11:26:26;7.10;;;5.40;;
25153;SDS011;47555;51.038;6.280;2023-08-20T11:28:52;6.47;;;5.70;;
25153;SDS011;47555;51.038;6.280;2023-08-20T11:31:19;7.93;;;5.55;;
25153;SDS011;47555;51.038;6.280;2023-08-20T11:33:45;8.30;;;6.22;;
25153;SDS011;47555;51.038;6.280;2023-08-20T11:36:12;7.22;;;6.50;;
25153;SDS011;47555;51.038;6.280;2023-08-20T11:38:40;9.10;;;6.30;;
25153;SDS011;47555;51.038;6.280;2023-08-20T11:41:06;6.13;;;5.53;;
25153;SDS011;47555;51.038;6.280;2023-08-20T11:43:32;6.90;;;5.70;;
25153;SDS011;47555;51.038;6.280;2023-08-20T11:45:58;8.15;;;6.30;;
25153;SDS011;47555;51.038;6.280;2023-08-20T11:48:25;6.70;;;5.72;;
25153;SDS011;47555;51.038;6.280;2023-08-20T11:50:51;10.32;;;6.50;;
25153;SDS011;47555;51.038;6.280;2023-08-20T11:53:20;8.20;;;5.70;;
25153;SDS011;47555;51.038;6.280;2023-08-20T11:55:50;7.63;;;6.07;;
25153;SDS011;47555;51.038;6.280;2023-08-20T11:58:16;7.70;;;6.03;;
25153;SDS011;47555;51.038;6.280;2023-08-20T12:00:47;9.13;;;6.22;;
25153;SDS011;47555;51.038;6.280;2023-08-20T12:03:14;7.47;;;5.57;;
25153;SDS011;47555;51.038;6.280;2023-08-20T12:05:41;7.38;;;5.70;;
25153;SDS011;47555;51.038;6.280;2023-08-20T12:08:07;7.90;;;5.47;;
25153;SDS011;47555;51.038;6.280;2023-08-20T12:10:33;7.03;;;5.55;;
25153;SDS011;47555;51.038;6.280;2023-08-20T12:12:59;6.30;;;5.05;;
25153;SDS011;47555;51.038;6.280;2023-08-20T12:15:25;7.22;;;5.13;;
25153;SDS011;47555;51.038;6.280;2023-08-20T12:18:01;5.97;;;5.13;;
25153;SDS011;47555;51.038;6.280;2023-08-20T12:20:29;5.90;;;5.28;;
25153;SDS011;47555;51.038;6.280;2023-08-20T12:22:59;7.43;;;4.80;;
25153;SDS011;47555;51.038;6.280;2023-08-20T12:25:26;6.82;;;5.35;;
25153;SDS011;47555;51.038;6.280;2023-08-20T12:27:52;9.23;;;6.38;;
25153;SDS011;47555;51.038;6.280;2023-08-20T12:30:18;7.00;;;5.13;;
25153;SDS011;47555;51.038;6.280;2023-08-20T12:32:44;5.97;;;4.78;;
25153;SDS011;47555;51.038;6.280;2023-08-20T12:35:10;6.00;;;4.75;;
25153;SDS011;47555;51.038;6.280;2023-08-20T12:37:36;5.35;;;4.47;;
25153;SDS011;47555;51.038;6.280;2023-08-20T12:40:02;6.30;;;4.80;;
25153;SDS011;47555;51.038;6.280;2023-08-20T12:42:32;5.55;;;4.95;;
25153;SDS011;47555;51.038;6.280;2023-08-20T12:44:58;8.02;;;5.10;;
25153;SDS011;47555;51.038;6.280;2023-08-20T12:47:24;6.30;;;4.40;;
25153;SDS011;47555;51.038;6.280;2023-08-20T12:49:50;6.47;;;4.63;;
25153;SDS011;47555;51.038;6.280;2023-08-20T12:52:16;6.70;;;4.78;;
25153;SDS011;47555;51.038;6.280;2023-08-20T12:54:42;6.97;;;4.97;;
25153;SDS011;47555;51.038;6.280;2023-08-20T12:57:08;5.45;;;4.28;;
25153;SDS011;47555;51.038;6.280;2023-08-20T12:59:34;5.55;;;4.53;;
25153;SDS011;47555;51.038;6.280;2023-08-20T13:02:00;5.38;;;4.40;;
25153;SDS011;47555;51.038;6.280;2023-08-20T13:04:26;6.68;;;4.32;;
25153;SDS011;47555;51.038;6.280;2023-08-20T13:06:52;7.10;;;4.03;;
25153;SDS011;47555;51.038;6.280;2023-08-20T13:09:18;6.18;;;4.55;;
25153;SDS011;47555;51.038;6.280;2023-08-20T13:11:44;4.82;;;4.18;;
25153;SDS011;47555;51.038;6.280;2023-08-20T13:14:10;5.57;;;4.20;;
25153;SDS011;47555;51.038;6.280;2023-08-20T13:16:36;5.03;;;4.15;;
25153;SDS011;47555;51.038;6.280;2023-08-20T13:19:02;6.35;;;4.28;;
25153;SDS011;47555;51.038;6.280;2023-08-20T13:21:28;5.70;;;3.95;;
25153;SDS011;47555;51.038;6.280;2023-08-20T13:23:54;4.00;;;3.53;;
25153;SDS011;47555;51.038;6.280;2023-08-20T13:26:20;5.30;;;3.97;;
25153;SDS011;47555;51.038;6.280;2023-08-20T13:28:47;5.18;;;3.83;;
25153;SDS011;47555;51.038;6.280;2023-08-20T13:31:13;6.97;;;4.15;;
25153;SDS011;47555;51.038;6.280;2023-08-20T13:33:39;6.60;;;3.88;;
25153;SDS011;47555;51.038;6.280;2023-08-20T13:36:05;4.95;;;3.63;;
25153;SDS011;47555;51.038;6.280;2023-08-20T13:38:32;5.80;;;4.15;;
25153;SDS011;47555;51.038;6.280;2023-08-20T13:40:59;7.13;;;4.28;;
25153;SDS011;47555;51.038;6.280;2023-08-20T13:43:25;4.00;;;3.53;;
25153;SDS011;47555;51.038;6.280;2023-08-20T13:45:51;5.03;;;3.70;;
25153;SDS011;47555;51.038;6.280;2023-08-20T13:48:17;4.70;;;3.63;;
25153;SDS011;47555;51.038;6.280;2023-08-20T13:50:43;4.70;;;3.65;;
25153;SDS011;47555;51.038;6.280;2023-08-20T13:53:09;4.57;;;3.45;;
25153;SDS011;47555;51.038;6.280;2023-08-20T13:55:35;3.95;;;3.38;;
25153;SDS011;47555;51.038;6.280;2023-08-20T13:58:01;4.60;;;3.60;;
25153;SDS011;47555;51.038;6.280;2023-08-20T14:00:27;4.35;;;3.38;;
25153;SDS011;47555;51.038;6.280;2023-08-20T14:02:53;4.25;;;3.65;;
25153;SDS011;47555;51.038;6.280;2023-08-20T14:05:19;3.83;;;3.53;;
25153;SDS011;47555;51.038;6.280;2023-08-20T14:07:45;3.92;;;3.40;;
25153;SDS011;47555;51.038;6.280;2023-08-20T14:10:11;5.22;;;3.60;;
25153;SDS011;47555;51.038;6.280;2023-08-20T14:12:37;5.03;;;3.20;;
25153;SDS011;47555;51.038;6.280;2023-08-20T14:15:03;6.60;;;3.60;;
25153;SDS011;47555;51.038;6.280;2023-08-20T14:17:29;5.70;;;3.63;;
25153;SDS011;47555;51.038;6.280;2023-08-20T14:19:55;4.13;;;3.50;;
25153;SDS011;47555;51.038;6.280;2023-08-20T14:22:21;3.75;;;3.15;;
25153;SDS011;47555;51.038;6.280;2023-08-20T14:24:47;3.72;;;2.97;;
25153;SDS011;47555;51.038;6.280;2023-08-20T14:27:13;5.15;;;3.42;;
25153;SDS011;47555;51.038;6.280;2023-08-20T14:29:40;4.15;;;3.45;;
25153;SDS011;47555;51.038;6.280;2023-08-20T14:32:06;5.43;;;3.78;;
25153;SDS011;47555;51.038;6.280;2023-08-20T14:34:32;3.70;;;3.38;;
25153;SDS011;47555;51.038;6.280;2023-08-20T14:36:58;4.30;;;3.17;;